Airfield :
LOGIN :

Register | Disclaimer

   EN    FR    IT 

 










Legend :    VFR   Marginal VFR   IFR   Intensive IFR   Very Intensive IFR
Visi :
Ceiling :
>= 8 km
>= 3000ft
5 to 8 km
1000 to 3000 ft
1500m to 5 km
500 to 1000 ft
800 to 1500m
200 to 500 ft
< 800m
< 200 ft
Symbols :   Thunderstorms  Fog  Heavy snow  Heavy precipitations  Wind > 20 kt
SIGMETs :     Misc.  Thunderstorms  Icing  Turbulence  Mountain Waves  Volcanic Ashes







- Airport Elevation : 204 ft
- IATA code : AGF
- Download approach charts


LFBA - Agen

CURRENT METAR :
  • 221600Z AUTO VRB02KT CAVOK 21/02 Q1026 NOSIG

EXPIRED METARs :
  • 221530Z AUTO 14003KT 070V190 CAVOK 20/03 Q1026 NOSIG
  • 221500Z AUTO 14004KT 050V210 CAVOK 20/01 Q1026 NOSIG
  • 221430Z AUTO 09004KT 060V140 CAVOK 20/01 Q1027 NOSIG
  • 221400Z AUTO 12003KT 050V210 CAVOK 20/00 Q1027 NOSIG
  • 221330Z AUTO 10003KT 050V150 CAVOK 19/00 Q1027 NOSIG

TAF TAF LFBA
Valid from the 22 at 15:00 until the 23 at 00:00 UTC


221400Z 2215/2224 11005KT CAVOK
No reported NOTAMs for that airfield.



MET'MAP, your aeronautical weather chart ! - Copyright ORBIFLY December 2007 - Disclaimer

ORBIFLY MET'MAP TEAM :

Programming & Development : Alexandra Zaïnal
Concept & Development : Baudouin d'Aumeries
Co-Development & Prog : Marc-Olivier Méhu
Technical & hardware support : Manuel Goepfert

Contact : metmap@orbifly.com




SOURCES & CREDITS :

   NOAA